Ashley, Ohio
Current Conditions -  °F | °C
As of 8:36 AM on Wednesday 22 Oct 2014 (Local Time) from KDLZ Reporting Station
Overcast Overcast  
Wind Chill: 36°   Ceiling: 3600
Heat Index: 41°   Visibility: 7mi
Dew Point: 39°   Wind: 7mph
Humidity: 93%   Direction: 340°NNW
Pressure: 30.25"   Gusts: NA
Location:  40.41°N, 82.96°W
Report Text: KDLZ 221236Z AUTO 34006KT 7SM SCT008 BKN036 OVC044 05/04 A3025 RMK AO2
Loading
Personal Weather Stations






























Interactive Weather Map New forecast layout! Learn more

10-Day Weather Forecast

Advertisements
Track Severe Weather on mobile